createdAt,value
2022-10-01T00:01:31.896Z,39.63
2022-10-01T00:04:01.219Z,39.13
2022-10-01T00:06:30.142Z,33.97
2022-10-01T00:08:59.411Z,41.73
2022-10-01T00:11:28.417Z,39.40
2022-10-01T00:13:59.756Z,43.13
2022-10-01T00:16:29.957Z,43.60
2022-10-01T00:19:00.625Z,57.67
2022-10-01T00:21:31.949Z,44.10
2022-10-01T00:24:03.395Z,46.07
2022-10-01T00:26:33.941Z,41.87
2022-10-01T00:29:06.690Z,42.23
2022-10-01T00:31:35.683Z,40.70
2022-10-01T00:34:05.130Z,46.57
2022-10-01T00:36:34.945Z,38.13
2022-10-01T00:39:03.752Z,30.37
2022-10-01T00:41:35.584Z,34.27
2022-10-01T00:44:30.628Z,38.67
2022-10-01T00:47:03.129Z,41.23
2022-10-01T00:49:34.201Z,33.30
2022-10-01T00:52:26.438Z,35.10
2022-10-01T00:54:58.972Z,32.53
2022-10-01T00:57:29.072Z,30.20
2022-10-01T01:00:02.812Z,26.60
2022-10-01T01:02:31.731Z,28.53
2022-10-01T01:05:00.905Z,31.93
2022-10-01T01:07:31.131Z,26.43
2022-10-01T01:10:01.965Z,29.73
2022-10-01T01:12:47.671Z,33.13
2022-10-01T01:15:22.732Z,31.90
2022-10-01T01:17:57.612Z,32.73
2022-10-01T01:20:54.864Z,33.23
2022-10-01T01:23:44.085Z,29.33
2022-10-01T01:26:24.831Z,32.43
2022-10-01T01:28:59.266Z,36.97
2022-10-01T01:31:34.081Z,33.60
2022-10-01T01:34:07.135Z,42.13
2022-10-01T01:36:59.072Z,32.23
2022-10-01T01:39:32.950Z,39.47
2022-10-01T01:42:06.625Z,44.00
2022-10-01T01:44:41.199Z,32.60
2022-10-01T01:47:11.961Z,33.43
2022-10-01T01:49:42.304Z,35.20
2022-10-01T01:52:13.674Z,32.57
2022-10-01T01:54:44.631Z,26.50
2022-10-01T01:57:14.779Z,27.80
2022-10-01T01:59:45.143Z,26.53
2022-10-01T02:02:16.029Z,34.87
2022-10-01T02:04:48.527Z,23.87
2022-10-01T02:07:55.445Z,31.73
2022-10-01T02:10:37.135Z,29.37
2022-10-01T02:13:20.576Z,23.13
2022-10-01T02:16:01.522Z,24.70
2022-10-01T02:18:36.418Z,24.73
2022-10-01T02:21:14.067Z,30.70
2022-10-01T02:23:49.378Z,27.87
2022-10-01T02:26:22.173Z,29.93
2022-10-01T02:29:13.894Z,24.63
2022-10-01T02:31:44.677Z,23.50
2022-10-01T02:34:20.017Z,23.23
2022-10-01T02:36:50.297Z,23.80
2022-10-01T02:39:39.711Z,26.47
2022-10-01T02:42:10.236Z,26.13
2022-10-01T02:44:42.879Z,26.97
2022-10-01T02:47:19.768Z,25.57
2022-10-01T02:49:49.393Z,30.07
2022-10-01T02:52:27.667Z,30.37
2022-10-01T02:55:00.917Z,29.83
2022-10-01T02:57:29.199Z,27.77
2022-10-01T03:00:00.151Z,41.33
2022-10-01T03:02:33.302Z,35.77
2022-10-01T03:05:02.575Z,29.33
2022-10-01T03:07:32.522Z,22.93
2022-10-01T03:10:01.404Z,26.17
2022-10-01T03:12:30.185Z,28.30
2022-10-01T03:14:58.876Z,28.93
2022-10-01T03:17:27.837Z,29.20
2022-10-01T03:19:58.060Z,26.20
2022-10-01T03:22:27.014Z,24.70
2022-10-01T03:24:55.993Z,25.43
2022-10-01T03:27:24.938Z,22.77
2022-10-01T03:29:54.020Z,20.53
2022-10-01T03:32:22.760Z,23.77
2022-10-01T03:34:51.434Z,18.20
2022-10-01T03:37:21.664Z,23.70
2022-10-01T03:39:50.451Z,24.03
2022-10-01T03:42:19.185Z,44.63
2022-10-01T03:44:48.333Z,35.00
2022-10-01T03:47:17.171Z,34.60
2022-10-01T03:49:45.820Z,38.70
2022-10-01T03:52:14.625Z,31.37
2022-10-01T03:54:44.873Z,32.63
2022-10-01T03:57:13.787Z,26.33
2022-10-01T03:59:42.843Z,31.43
2022-10-01T04:02:11.584Z,25.43
2022-10-01T04:04:40.539Z,31.07
2022-10-01T04:07:09.306Z,39.53
2022-10-01T04:09:38.955Z,34.67
2022-10-01T04:12:27.480Z,36.43
2022-10-01T04:14:56.194Z,36.23
2022-10-01T04:17:45.966Z,36.37
2022-10-01T04:20:15.103Z,39.53
2022-10-01T04:22:45.437Z,40.87
2022-10-01T04:25:14.977Z,45.67
2022-10-01T04:27:56.937Z,42.27
2022-10-01T04:30:26.477Z,52.43
2022-10-01T04:32:55.121Z,47.57
2022-10-01T04:35:24.628Z,66.67
2022-10-01T04:37:59.460Z,42.90
2022-10-01T04:40:28.166Z,35.47
2022-10-01T04:42:59.267Z,33.13
2022-10-01T04:45:28.584Z,32.17
2022-10-01T04:47:58.701Z,38.30
2022-10-01T04:50:28.621Z,32.63
2022-10-01T04:52:57.391Z,38.07
2022-10-01T04:55:26.459Z,43.87
2022-10-01T04:57:55.967Z,30.47
2022-10-01T05:00:27.083Z,29.57
2022-10-01T05:02:56.260Z,37.13
2022-10-01T05:05:28.325Z,35.87
2022-10-01T05:07:57.108Z,34.83
2022-10-01T05:10:44.753Z,45.63
2022-10-01T05:13:14.080Z,33.63
2022-10-01T05:15:44.988Z,32.17
2022-10-01T05:18:13.816Z,31.27
2022-10-01T05:20:42.482Z,32.40
2022-10-01T05:23:11.287Z,33.27
2022-10-01T05:25:40.043Z,57.07
2022-10-01T05:28:08.953Z,56.87
2022-10-01T05:30:37.680Z,47.43
2022-10-01T05:33:07.924Z,45.63
2022-10-01T05:35:36.760Z,51.03
2022-10-01T05:38:05.529Z,47.63
2022-10-01T05:40:34.386Z,39.77
2022-10-01T05:43:04.595Z,39.00
2022-10-01T05:45:34.051Z,46.87
2022-10-01T05:48:04.577Z,50.20
2022-10-01T05:50:39.487Z,54.37
2022-10-01T05:53:09.141Z,51.50
2022-10-01T05:55:37.955Z,49.17
2022-10-01T05:58:09.970Z,43.53
2022-10-01T06:00:40.220Z,50.27
2022-10-01T06:03:09.510Z,53.03
2022-10-01T06:05:40.010Z,53.53
2022-10-01T06:08:09.939Z,47.37
2022-10-01T06:10:38.948Z,38.40
2022-10-01T06:13:08.126Z,41.27
2022-10-01T06:15:38.726Z,38.43
2022-10-01T06:18:09.392Z,39.50
2022-10-01T06:20:40.932Z,34.03
2022-10-01T06:23:12.697Z,37.27
2022-10-01T06:25:42.988Z,43.53
2022-10-01T06:28:15.876Z,33.33
2022-10-01T06:30:44.775Z,30.93
2022-10-01T06:33:14.689Z,33.13
2022-10-01T06:35:47.224Z,35.57
2022-10-01T06:38:17.293Z,37.07
2022-10-01T06:40:46.216Z,36.07
2022-10-01T06:43:14.941Z,38.13
2022-10-01T06:45:43.770Z,36.43
2022-10-01T06:48:15.413Z,47.33
2022-10-01T06:50:46.995Z,51.43
2022-10-01T06:53:18.794Z,41.80
2022-10-01T06:55:47.754Z,44.87
2022-10-01T06:58:18.045Z,42.70
2022-10-01T07:00:47.179Z,54.10
2022-10-01T07:03:18.505Z,45.97
2022-10-01T07:05:49.573Z,48.60
2022-10-01T07:08:19.060Z,47.67
2022-10-01T07:10:52.293Z,38.90
2022-10-01T07:13:21.883Z,42.60
2022-10-01T07:15:50.672Z,37.57
2022-10-01T07:18:19.368Z,38.70
2022-10-01T07:20:49.491Z,39.57
2022-10-01T07:23:18.621Z,35.17
2022-10-01T07:25:47.571Z,34.27
2022-10-01T07:28:18.571Z,41.53
2022-10-01T07:30:49.011Z,50.80
2022-10-01T07:33:20.315Z,39.50
2022-10-01T07:35:50.478Z,37.93
2022-10-01T07:38:38.041Z,42.83
2022-10-01T07:41:07.226Z,30.97
2022-10-01T07:43:36.807Z,34.70
2022-10-01T07:46:07.414Z,38.03
2022-10-01T07:48:36.102Z,28.90
2022-10-01T07:51:06.438Z,31.93
2022-10-01T07:53:35.184Z,39.00
2022-10-01T07:56:04.658Z,31.20
2022-10-01T07:58:33.421Z,23.47
2022-10-01T08:01:05.720Z,34.13
2022-10-01T08:03:34.722Z,32.20
2022-10-01T08:06:03.790Z,52.73
2022-10-01T08:08:34.210Z,46.17
2022-10-01T08:11:21.463Z,33.70
2022-10-01T08:13:50.210Z,52.57
2022-10-01T08:16:19.233Z,26.87
2022-10-01T08:18:48.036Z,30.90
2022-10-01T08:21:16.743Z,27.60
2022-10-01T08:23:46.850Z,25.13
2022-10-01T08:26:15.660Z,46.73
2022-10-01T08:28:44.331Z,25.30
2022-10-01T08:31:13.190Z,25.90
2022-10-01T08:33:42.088Z,27.57
2022-10-01T08:36:10.805Z,36.57
2022-10-01T08:38:40.908Z,30.77
2022-10-01T08:41:25.747Z,30.53
2022-10-01T08:43:55.623Z,33.97
2022-10-01T08:46:29.427Z,37.83
2022-10-01T08:49:04.464Z,27.60
2022-10-01T08:51:39.855Z,27.37
2022-10-01T08:54:21.979Z,32.63
2022-10-01T08:56:54.860Z,31.63
2022-10-01T08:59:36.650Z,32.00
2022-10-01T09:02:19.453Z,26.83
2022-10-01T09:05:15.339Z,36.40
2022-10-01T09:07:58.751Z,51.00
2022-10-01T09:10:43.606Z,31.13
2022-10-01T09:13:34.347Z,22.33
2022-10-01T09:16:14.018Z,98.93
2022-10-01T09:18:55.868Z,27.40
2022-10-01T09:21:39.138Z,27.27
2022-10-01T09:24:15.485Z,23.17
2022-10-01T09:26:49.505Z,26.87
2022-10-01T09:29:28.158Z,21.03
2022-10-01T09:31:58.525Z,17.33
2022-10-01T09:34:34.343Z,20.30
2022-10-01T09:37:28.301Z,25.90
2022-10-01T09:40:07.172Z,17.73
2022-10-01T09:42:36.254Z,16.13
2022-10-01T09:45:07.633Z,18.60
2022-10-01T09:47:36.396Z,27.50
2022-10-01T09:50:06.804Z,19.30
2022-10-01T09:52:38.151Z,19.97
2022-10-01T09:55:12.172Z,15.90
2022-10-01T09:58:04.861Z,16.67
2022-10-01T10:00:35.478Z,17.30
2022-10-01T10:03:04.668Z,31.60
2022-10-01T10:05:43.401Z,18.03
2022-10-01T10:08:17.024Z,13.97
2022-10-01T10:10:53.166Z,25.37
2022-10-01T10:13:32.486Z,17.83
2022-10-01T10:16:11.076Z,19.00
2022-10-01T10:18:41.598Z,15.23
2022-10-01T10:21:18.305Z,26.93
2022-10-01T10:23:51.924Z,13.85
2022-10-01T10:26:23.021Z,18.17
2022-10-01T10:28:52.155Z,21.15
2022-10-01T10:31:25.566Z,19.35
2022-10-01T10:33:57.877Z,15.60
2022-10-01T10:36:30.547Z,19.15
2022-10-01T10:39:00.516Z,17.92
2022-10-01T10:41:31.293Z,17.02
2022-10-01T10:44:04.685Z,23.10
2022-10-01T10:46:39.216Z,21.27
2022-10-01T10:49:21.558Z,13.40
2022-10-01T10:51:54.307Z,20.13
2022-10-01T10:54:33.417Z,24.52
2022-10-01T10:57:04.716Z,22.98
2022-10-01T10:59:35.256Z,29.88
2022-10-01T11:02:07.608Z,23.80
2022-10-01T11:04:42.948Z,19.25
2022-10-01T11:07:14.966Z,20.58
2022-10-01T11:10:26.398Z,22.80
2022-10-01T11:13:08.586Z,16.38
2022-10-01T11:15:58.407Z,19.13
2022-10-01T11:18:50.042Z,29.60
2022-10-01T11:21:48.691Z,24.65
2022-10-01T11:24:41.231Z,20.95
2022-10-01T11:27:15.937Z,28.40
2022-10-01T11:29:56.336Z,23.20
2022-10-01T11:32:34.961Z,26.65
2022-10-01T11:35:45.905Z,23.85
2022-10-01T11:38:51.346Z,22.20
2022-10-01T11:41:31.318Z,22.42
2022-10-01T11:44:05.461Z,25.98
2022-10-01T11:46:44.436Z,36.67
2022-10-01T11:49:35.062Z,37.53
2022-10-01T11:52:19.266Z,45.77
2022-10-01T11:55:37.598Z,24.00
2022-10-01T11:58:33.365Z,25.10
2022-10-01T12:01:09.650Z,27.23
2022-10-01T12:03:51.355Z,20.70
2022-10-01T12:06:25.668Z,96.10
2022-10-01T12:09:07.021Z,26.27
2022-10-01T12:11:42.005Z,21.90
2022-10-01T12:14:18.048Z,24.90
2022-10-01T12:16:52.858Z,19.90
2022-10-01T12:19:25.259Z,20.43
2022-10-01T12:22:00.420Z,29.37
2022-10-01T12:24:34.962Z,24.37
2022-10-01T12:27:28.296Z,37.93
2022-10-01T12:30:03.987Z,20.07
2022-10-01T12:32:48.177Z,19.63
2022-10-01T12:35:35.885Z,17.50
2022-10-01T12:38:18.503Z,13.07
2022-10-01T12:40:55.767Z,12.03
2022-10-01T12:43:48.428Z,24.53
2022-10-01T12:46:28.137Z,13.10
2022-10-01T12:49:08.263Z,23.77
2022-10-01T12:51:44.436Z,16.03
2022-10-01T12:54:42.096Z,8.10
2022-10-01T12:57:24.858Z,13.33
2022-10-01T13:00:19.341Z,17.97
2022-10-01T13:03:15.798Z,23.97
2022-10-01T13:05:55.922Z,12.77
2022-10-01T13:08:45.953Z,11.13
2022-10-01T13:11:28.646Z,16.90
2022-10-01T13:14:01.154Z,19.73
2022-10-01T13:16:34.293Z,17.77
2022-10-01T13:19:08.803Z,15.27
2022-10-01T13:21:54.672Z,10.07
2022-10-01T13:24:29.569Z,13.00
2022-10-01T13:27:04.743Z,10.70
2022-10-01T13:29:48.722Z,9.15
2022-10-01T13:32:30.328Z,19.57
2022-10-01T13:35:00.359Z,19.60
2022-10-01T13:37:38.333Z,13.20
2022-10-01T13:40:25.207Z,16.50
2022-10-01T13:42:55.166Z,12.37
2022-10-01T13:45:42.984Z,8.77
2022-10-01T13:48:20.567Z,11.43
2022-10-01T13:50:59.420Z,8.33
2022-10-01T13:53:30.093Z,11.27
2022-10-01T13:55:59.408Z,15.13
2022-10-01T13:58:38.562Z,26.37
2022-10-01T14:01:31.712Z,14.53
2022-10-01T14:04:07.217Z,17.80
2022-10-01T14:06:47.103Z,14.10
2022-10-01T14:09:20.299Z,33.43
2022-10-01T14:12:10.369Z,21.47
2022-10-01T14:14:59.054Z,22.03
2022-10-01T14:17:32.867Z,18.40
2022-10-01T14:20:26.179Z,15.37
2022-10-01T14:23:10.382Z,18.50
2022-10-01T14:25:51.435Z,19.63
2022-10-01T14:28:38.810Z,19.50
2022-10-01T14:31:14.506Z,22.00
2022-10-01T14:33:57.426Z,17.73
2022-10-01T14:36:32.811Z,14.53
2022-10-01T14:39:07.145Z,10.63
2022-10-01T14:41:36.229Z,12.13
2022-10-01T14:44:25.447Z,12.77
2022-10-01T14:46:55.971Z,36.77
2022-10-01T14:49:30.401Z,29.33
2022-10-01T14:52:02.994Z,25.30
2022-10-01T14:54:39.022Z,28.00
2022-10-01T14:57:32.280Z,28.97
2022-10-01T15:00:08.303Z,26.97
2022-10-01T15:02:45.580Z,23.67
2022-10-01T15:05:23.505Z,30.10
2022-10-01T15:07:52.881Z,29.10
2022-10-01T15:10:24.202Z,33.13
2022-10-01T15:12:55.350Z,32.47
2022-10-01T15:15:29.672Z,24.73
2022-10-01T15:17:58.630Z,24.73
2022-10-01T15:20:29.179Z,26.87
2022-10-01T15:23:01.430Z,38.60
2022-10-01T15:25:32.811Z,36.43
2022-10-01T15:28:32.169Z,30.03
2022-10-01T15:31:03.454Z,29.87
2022-10-01T15:33:34.538Z,35.67
2022-10-01T15:36:06.910Z,51.60
2022-10-01T15:38:36.497Z,31.83
2022-10-01T15:41:30.671Z,35.63
2022-10-01T15:44:47.326Z,95.00
2022-10-01T15:47:33.182Z,57.00
2022-10-01T15:50:19.332Z,67.03
2022-10-01T15:52:54.611Z,90.67
2022-10-01T15:55:32.596Z,87.00
2022-10-01T15:58:08.436Z,70.37
2022-10-01T16:00:44.978Z,59.73
2022-10-01T16:03:23.527Z,57.57
2022-10-01T16:05:55.242Z,52.07
2022-10-01T16:08:34.424Z,72.03
2022-10-01T16:11:28.063Z,77.27
2022-10-01T16:14:22.477Z,39.73
2022-10-01T16:16:52.006Z,80.83
2022-10-01T16:19:29.650Z,53.67
2022-10-01T16:22:22.983Z,52.27
2022-10-01T16:24:54.979Z,141.03
2022-10-01T16:27:26.400Z,108.30
2022-10-01T16:30:01.322Z,190.67
2022-10-01T16:32:33.689Z,231.23
2022-10-01T16:35:21.935Z,263.47
2022-10-01T16:37:53.784Z,155.37
2022-10-01T16:40:26.221Z,176.20
2022-10-01T16:42:55.512Z,200.17
2022-10-01T16:45:27.034Z,205.87
2022-10-01T16:47:57.873Z,461.80
2022-10-01T16:50:27.903Z,527.00
2022-10-01T16:53:01.522Z,210.77
2022-10-01T16:55:37.199Z,135.47
2022-10-01T16:58:07.192Z,506.53
2022-10-01T17:00:37.341Z,264.43
2022-10-01T17:03:09.240Z,139.50
2022-10-01T17:05:56.940Z,134.93
2022-10-01T17:08:25.993Z,135.33
2022-10-01T17:10:59.398Z,121.27
2022-10-01T17:13:29.212Z,77.03
2022-10-01T17:15:58.969Z,119.07
2022-10-01T17:18:27.784Z,109.30
2022-10-01T17:20:57.512Z,68.07
2022-10-01T17:23:26.622Z,70.37
2022-10-01T17:25:57.021Z,71.47
2022-10-01T17:28:25.907Z,60.27
2022-10-01T17:30:54.625Z,46.67
2022-10-01T17:33:25.223Z,40.97
2022-10-01T17:35:55.881Z,36.37
2022-10-01T17:38:26.029Z,37.87
2022-10-01T17:40:56.923Z,53.27
2022-10-01T17:43:44.458Z,41.33
2022-10-01T17:46:13.408Z,42.23
2022-10-01T17:48:42.881Z,35.37
2022-10-01T17:51:16.177Z,36.90
2022-10-01T17:53:45.168Z,40.30
2022-10-01T17:56:17.952Z,35.60
2022-10-01T17:58:47.708Z,36.73
2022-10-01T18:01:20.066Z,35.20
2022-10-01T18:03:49.329Z,33.20
2022-10-01T18:06:18.078Z,56.03
2022-10-01T18:08:56.038Z,43.07
2022-10-01T18:11:27.922Z,38.57
2022-10-01T18:13:57.028Z,34.97
2022-10-01T18:16:26.611Z,31.77
2022-10-01T18:21:49.236Z,23.60
2022-10-01T18:24:18.608Z,19.13
2022-10-01T18:26:49.104Z,18.33
2022-10-01T18:29:21.782Z,20.20
2022-10-01T18:31:56.127Z,31.50
2022-10-01T18:34:31.898Z,19.47
2022-10-01T18:37:06.285Z,25.03
2022-10-01T18:39:41.213Z,19.43
2022-10-01T18:42:18.292Z,22.67
2022-10-01T18:44:52.272Z,20.53
2022-10-01T18:47:34.427Z,17.40
2022-10-01T18:50:30.001Z,19.43
2022-10-01T18:53:12.219Z,22.70
2022-10-01T18:56:10.229Z,16.90
2022-10-01T18:58:58.429Z,27.53
2022-10-01T19:01:57.413Z,27.23
2022-10-01T19:05:05.558Z,36.20
2022-10-01T19:07:48.557Z,47.67
2022-10-01T19:10:27.046Z,47.57
2022-10-01T19:13:05.787Z,54.07
2022-10-01T19:15:49.609Z,31.97
2022-10-01T19:18:47.419Z,30.93
2022-10-01T19:21:26.598Z,30.60
2022-10-01T19:24:24.639Z,33.13
2022-10-01T19:27:05.206Z,26.80
2022-10-01T19:29:57.804Z,18.60
2022-10-01T19:32:37.305Z,27.83
2022-10-01T19:35:13.571Z,22.10
2022-10-01T19:37:48.308Z,26.47
2022-10-01T19:40:27.713Z,21.87
2022-10-01T19:43:04.223Z,24.07
2022-10-01T19:45:44.789Z,36.80
2022-10-01T19:48:21.383Z,31.17
2022-10-01T19:50:56.299Z,33.77
2022-10-01T19:53:29.873Z,39.20
2022-10-01T19:56:01.814Z,25.57
2022-10-01T19:58:32.512Z,33.17
2022-10-01T20:01:04.132Z,30.43
2022-10-01T20:03:39.937Z,31.90
2022-10-01T20:06:19.800Z,31.40
2022-10-01T20:08:53.781Z,29.83
2022-10-01T20:11:30.780Z,22.57
2022-10-01T20:14:44.353Z,33.97
2022-10-01T20:17:20.877Z,21.20
2022-10-01T20:19:58.108Z,19.97
2022-10-01T20:22:35.172Z,27.33
2022-10-01T20:25:11.902Z,23.17
2022-10-01T20:27:49.631Z,20.23
2022-10-01T20:30:20.440Z,21.67
2022-10-01T20:33:13.464Z,15.80
2022-10-01T20:35:51.633Z,19.37
2022-10-01T20:38:24.140Z,26.37
2022-10-01T20:40:56.840Z,17.80
2022-10-01T20:43:32.538Z,26.97
2022-10-01T20:46:10.304Z,14.77
2022-10-01T20:48:43.978Z,13.07
2022-10-01T20:51:19.321Z,18.53
2022-10-01T20:53:54.569Z,26.87
2022-10-01T20:56:26.745Z,28.23
2022-10-01T20:59:00.747Z,21.57
2022-10-01T21:01:32.350Z,19.70
2022-10-01T21:04:06.295Z,23.43
2022-10-01T21:06:40.953Z,22.17
2022-10-01T21:09:16.684Z,18.93
2022-10-01T21:11:51.007Z,22.03
2022-10-01T21:14:25.245Z,22.47
2022-10-01T21:17:20.928Z,30.00
2022-10-01T21:20:18.406Z,26.73
2022-10-01T21:23:04.213Z,21.63
2022-10-01T21:25:41.121Z,17.37
2022-10-01T21:28:20.476Z,21.47
2022-10-01T21:31:03.782Z,20.53
2022-10-01T21:33:54.215Z,16.93
2022-10-01T21:36:29.187Z,16.33
2022-10-01T21:39:07.015Z,17.90
2022-10-01T21:42:01.874Z,18.83
2022-10-01T21:45:02.878Z,15.37
2022-10-01T21:47:44.089Z,21.53
2022-10-01T21:50:23.965Z,26.47
2022-10-01T21:53:10.965Z,13.73
2022-10-01T21:55:59.336Z,18.30
2022-10-01T21:58:39.360Z,19.50
2022-10-01T22:01:17.387Z,16.03
2022-10-01T22:03:51.004Z,17.30
2022-10-01T22:06:29.235Z,19.43
2022-10-01T22:09:24.146Z,21.73
2022-10-01T22:11:58.683Z,22.00
2022-10-01T22:14:28.818Z,17.50
2022-10-01T22:16:59.134Z,17.37
2022-10-01T22:19:31.267Z,17.37
2022-10-01T22:22:06.120Z,20.53
2022-10-01T22:24:40.331Z,19.87
2022-10-01T22:27:14.783Z,18.33
2022-10-01T22:29:49.356Z,16.67
2022-10-01T22:32:21.063Z,14.30
2022-10-01T22:34:56.509Z,18.90
2022-10-01T22:37:32.149Z,14.37
2022-10-01T22:40:07.925Z,15.90
2022-10-01T22:42:42.848Z,16.23
2022-10-01T22:45:15.967Z,16.03
2022-10-01T22:47:59.576Z,19.63
2022-10-01T22:50:57.299Z,21.80
2022-10-01T22:53:43.438Z,20.07
2022-10-01T22:56:19.426Z,19.73
2022-10-01T22:59:01.972Z,13.87
2022-10-01T23:01:38.487Z,16.43
2022-10-01T23:04:21.885Z,16.90
2022-10-01T23:07:02.012Z,21.63
2022-10-01T23:09:36.808Z,20.40
2022-10-01T23:12:12.691Z,24.13
2022-10-01T23:14:55.560Z,18.63
2022-10-01T23:17:30.159Z,17.23
2022-10-01T23:20:12.618Z,24.53
2022-10-01T23:22:54.320Z,25.73
2022-10-01T23:25:40.288Z,17.93
2022-10-01T23:28:22.519Z,17.17
2022-10-01T23:31:08.185Z,19.47
2022-10-01T23:33:49.503Z,16.17
2022-10-01T23:36:40.016Z,13.47
2022-10-01T23:39:32.064Z,17.97
2022-10-01T23:42:11.036Z,19.67
2022-10-01T23:44:48.629Z,20.53
2022-10-01T23:47:25.459Z,14.03
2022-10-01T23:50:00.407Z,18.20
2022-10-01T23:52:41.728Z,17.60
2022-10-01T23:55:38.821Z,16.53
2022-10-01T23:58:12.121Z,16.90
